Time;durP1;ratioP1;P1;durP2;ratioP2;P2;SDS_P1;SDS_P2;PMS_P1;PMS_P2;Temp;Humidity;BMP_temperature;BMP_pressure;BME280_temperature;BME280_humidity;BME280_pressure;Samples;Min_cycle;Max_cycle;Signal;HPM_P1;HPM_P2
2020/12/12 00:01:18;;;;;;;14.93;5.00;;;;;;;6.99;100.00;98340.53;6138662;23;20008;-77
2020/12/12 00:03:43;;;;;;;17.40;4.90;;;;;;;6.98;100.00;98344.44;6139209;23;20008;-77
2020/12/12 00:06:09;;;;;;;19.17;5.07;;;;;;;6.96;100.00;98352.22;6090406;23;20508;-77
2020/12/12 00:08:41;;;;;;;16.80;4.88;;;;;;;6.97;100.00;98356.63;6090555;23;20016;-77
2020/12/12 00:11:07;;;;;;;14.65;4.90;;;;;;;6.98;100.00;98357.44;6140100;23;20032;-77
2020/12/12 00:13:32;;;;;;;16.75;5.30;;;;;;;6.96;100.00;98357.75;6138739;23;20312;-77
2020/12/12 00:15:58;;;;;;;14.68;4.85;;;;;;;6.98;100.00;98362.94;6162777;23;20374;-77
2020/12/12 00:18:24;;;;;;;14.40;4.53;;;;;;;6.98;100.00;98369.28;6189648;23;20013;-77
2020/12/12 00:20:49;;;;;;;14.93;4.47;;;;;;;6.99;100.00;98370.09;6138558;23;20064;-77
2020/12/12 00:23:15;;;;;;;13.55;3.97;;;;;;;7.00;100.00;98371.72;6138957;23;20005;-77
2020/12/12 00:25:43;;;;;;;11.90;4.00;;;;;;;7.00;100.00;98363.44;6137569;23;20009;-77
2020/12/12 00:28:09;;;;;;;12.38;4.60;;;;;;;7.00;100.00;98374.50;6139472;23;20087;-77
2020/12/12 00:30:35;;;;;;;11.40;3.60;;;;;;;7.00;100.00;98380.81;6161954;23;20020;-77
2020/12/12 00:33:00;;;;;;;13.55;3.50;;;;;;;7.01;100.00;98381.63;6163491;23;20334;-77
2020/12/12 00:35:31;;;;;;;12.07;3.35;;;;;;;7.00;100.00;98375.28;6139303;23;20009;-77
2020/12/12 00:37:59;;;;;;;10.95;3.22;;;;;;;7.02;100.00;98392.34;6118230;23;20005;-77
2020/12/12 00:40:25;;;;;;;8.73;3.22;;;;;;;7.02;100.00;98388.75;6115864;23;20033;-78
2020/12/12 00:42:53;;;;;;;15.00;4.05;;;;;;;7.03;100.00;98393.16;6165163;23;20009;-77
2020/12/12 00:45:19;;;;;;;9.95;3.63;;;;;;;7.04;100.00;98398.34;6093375;23;20005;-77
2020/12/12 00:47:45;;;;;;;16.95;3.60;;;;;;;7.03;100.00;98393.16;6139815;23;20012;-77
2020/12/12 00:50:10;;;;;;;20.65;3.15;;;;;;;7.04;100.00;98390.06;6165500;23;20016;-77
2020/12/12 00:52:36;;;;;;;11.57;3.03;;;;;;;7.06;100.00;98392.50;6165333;23;20325;-77
2020/12/12 00:55:04;;;;;;;15.10;3.38;;;;;;;7.05;100.00;98393.63;6115802;23;20009;-77
2020/12/12 00:57:30;;;;;;;9.90;2.50;;;;;;;7.06;100.00;98401.59;6140795;23;20005;-77
2020/12/12 01:00:03;;;;;;;10.77;2.45;;;;;;;7.07;100.00;98402.41;6140684;23;20019;-77
2020/12/12 01:02:31;;;;;;;14.07;2.53;;;;;;;7.06;100.00;98404.34;6142698;23;20005;-77
2020/12/12 01:05:00;;;;;;;18.45;3.03;;;;;;;7.07;100.00;98396.88;6165707;23;20005;-77
2020/12/12 01:07:26;;;;;;;16.60;2.78;;;;;;;7.06;100.00;98390.56;6191269;23;20057;-77
2020/12/12 01:09:52;;;;;;;16.10;3.45;;;;;;;7.06;100.00;98406.31;6139765;23;20682;-77
2020/12/12 01:12:18;;;;;;;15.80;2.50;;;;;;;7.05;100.00;98413.78;6092195;23;20323;-77
2020/12/12 01:14:44;;;;;;;10.48;2.40;;;;;;;7.06;100.00;98412.63;6140961;23;20083;-77
2020/12/12 01:17:10;;;;;;;12.02;2.40;;;;;;;7.07;100.00;98403.22;6115765;23;20339;-77
2020/12/12 01:19:35;;;;;;;13.35;2.47;;;;;;;7.06;100.00;98409.06;6091913;23;20013;-77
2020/12/12 01:22:01;;;;;;;13.13;2.38;;;;;;;7.05;100.00;98412.94;6139834;23;20334;-77
2020/12/12 01:24:29;;;;;;;8.38;2.63;;;;;;;7.04;100.00;98417.66;6164824;23;20109;-77
2020/12/12 01:26:54;;;;;;;16.00;2.30;;;;;;;7.03;100.00;98427.09;6116218;23;20017;-77
2020/12/12 01:29:20;;;;;;;8.18;2.10;;;;;;;7.01;100.00;98426.59;6116143;23;20013;-78
2020/12/12 01:31:49;;;;;;;13.32;2.63;;;;;;;7.00;100.00;98427.72;6163590;23;20089;-77
2020/12/12 01:34:16;;;;;;;14.20;1.80;;;;;;;6.98;100.00;98437.47;6115212;23;20039;-77
2020/12/12 01:36:42;;;;;;;15.43;2.85;;;;;;;6.96;100.00;98435.00;6140374;23;20061;-77
2020/12/12 01:39:07;;;;;;;9.65;2.50;;;;;;;6.97;100.00;98446.88;6115277;23;20435;-77
2020/12/12 01:41:33;;;;;;;9.05;2.13;;;;;;;6.94;100.00;98443.63;6115650;23;20505;-77
2020/12/12 01:44:01;;;;;;;11.07;2.28;;;;;;;6.93;100.00;98452.22;6141701;23;20426;-77
2020/12/12 01:46:27;;;;;;;13.52;1.98;;;;;;;6.94;100.00;98451.09;6139948;23;20075;-77
2020/12/12 01:48:56;;;;;;;12.00;2.28;;;;;;;6.94;100.00;98470.41;6139468;23;20781;-77
2020/12/12 01:51:25;;;;;;;11.90;2.17;;;;;;;6.93;100.00;98464.06;6165063;23;20009;-77
2020/12/12 01:53:51;;;;;;;12.70;2.00;;;;;;;6.94;100.00;98470.41;6165316;23;20005;-77
2020/12/12 01:56:17;;;;;;;9.25;2.00;;;;;;;6.94;100.00;98476.75;6115670;23;20075;-77
2020/12/12 01:58:43;;;;;;;18.00;2.50;;;;;;;6.93;100.00;98475.09;6140330;23;20009;-78
2020/12/12 02:01:12;;;;;;;12.15;2.20;;;;;;;6.96;100.00;98481.13;6093270;23;20009;-77
2020/12/12 02:03:45;;;;;;;9.70;1.40;;;;;;;6.95;100.00;98488.59;6139982;23;20032;-77
2020/12/12 02:06:14;;;;;;;14.10;2.42;;;;;;;6.97;100.00;98502.09;6093142;23;20009;-77
2020/12/12 02:08:39;;;;;;;9.23;2.65;;;;;;;6.98;100.00;98504.50;6091768;23;20005;-77
2020/12/12 02:11:08;;;;;;;14.85;1.92;;;;;;;6.97;100.00;98507.59;6139513;23;20066;-77
2020/12/12 02:13:33;;;;;;;13.18;1.90;;;;;;;6.99;100.00;98505.31;6115781;23;20208;-77
2020/12/12 02:15:59;;;;;;;9.75;1.42;;;;;;;6.99;100.00;98510.84;6164373;23;20334;-77
2020/12/12 02:18:25;;;;;;;9.57;1.77;;;;;;;6.99;100.00;98513.59;6190640;23;20005;-77
2020/12/12 02:20:54;;;;;;;7.30;1.48;;;;;;;7.00;100.00;98518.00;6115360;23;20430;-77
2020/12/12 02:23:20;;;;;;;7.35;1.60;;;;;;;7.01;100.00;98514.91;6164960;23;20001;-77
2020/12/12 02:25:46;;;;;;;11.52;1.50;;;;;;;7.01;100.00;98530.66;6190179;23;20083;-77
2020/12/12 02:28:15;;;;;;;8.02;1.55;;;;;;;7.02;100.00;98527.59;6091469;23;20009;-77
2020/12/12 02:30:41;;;;;;;12.35;1.88;;;;;;;7.02;100.00;98537.78;6139172;23;20005;-77
2020/12/12 02:33:06;;;;;;;7.05;1.13;;;;;;;7.03;100.00;98531.16;6091404;23;20059;-77
2020/12/12 02:35:32;;;;;;;7.82;1.60;;;;;;;7.02;100.00;98533.09;6140067;23;20312;-77
2020/12/12 02:37:57;;;;;;;6.00;1.27;;;;;;;7.03;100.00;98539.44;6163934;23;20008;-77
2020/12/12 02:40:23;;;;;;;6.47;1.20;;;;;;;7.03;100.00;98547.72;6190093;23;20005;-77
2020/12/12 02:42:51;;;;;;;5.68;1.00;;;;;;;7.03;100.00;98544.97;6115070;23;20071;-77
2020/12/12 02:45:18;;;;;;;9.80;1.48;;;;;;;7.01;100.00;98552.72;6140019;23;20005;-78
2020/12/12 02:47:45;;;;;;;10.30;1.40;;;;;;;7.02;100.00;98559.88;6114700;23;20089;-77
2020/12/12 02:50:11;;;;;;;9.55;1.73;;;;;;;7.02;100.00;98565.41;6115437;23;20005;-77
2020/12/12 02:52:38;;;;;;;4.57;1.05;;;;;;;7.01;100.00;98566.53;6115454;23;20005;-77
2020/12/12 02:55:24;;;;;;;8.43;1.35;;;;;;;7.01;100.00;98563.78;6139718;23;20430;-78
2020/12/12 02:57:50;;;;;;;11.23;1.40;;;;;;;7.01;100.00;98578.38;6139355;23;20063;-77
2020/12/12 03:00:17;;;;;;;5.78;1.40;;;;;;;7.01;100.00;98583.09;6114240;23;20005;-78
2020/12/12 03:02:57;;;;;;;9.25;1.20;;;;;;;7.00;100.00;98587.81;6114508;23;20031;-78
2020/12/12 03:05:23;;;;;;;6.18;1.10;;;;;;;7.00;100.00;98585.06;6115105;23;20013;-78
2020/12/12 03:07:48;;;;;;;9.98;1.42;;;;;;;7.00;100.00;98600.81;6115159;23;20012;-77
2020/12/12 03:10:20;;;;;;;7.18;1.20;;;;;;;6.99;100.00;98604.66;6138302;23;20020;-77
2020/12/12 03:13:00;;;;;;;10.80;1.40;;;;;;;7.00;100.00;98606.31;6097601;23;20008;-78
2020/12/12 03:15:26;;;;;;;8.75;1.50;;;;;;;7.01;100.00;98618.97;6114443;23;20017;-77
2020/12/12 03:17:52;;;;;;;8.52;1.40;;;;;;;7.00;100.00;98614.59;6139865;23;20033;-77
2020/12/12 03:20:17;;;;;;;8.98;1.70;;;;;;;7.00;100.00;98623.69;6139682;23;20328;-77
2020/12/12 03:22:49;;;;;;;7.65;1.50;;;;;;;7.01;100.00;98630.81;6163799;23;20009;-77
2020/12/12 03:25:17;;;;;;;12.00;1.83;;;;;;;7.01;100.00;98635.53;6140166;23;19997;-78
2020/12/12 03:27:43;;;;;;;8.32;1.30;;;;;;;7.01;100.00;98632.78;6086337;23;20021;-78
2020/12/12 03:30:08;;;;;;;9.10;1.40;;;;;;;7.01;100.00;98635.53;6104668;23;20025;-77
2020/12/12 03:32:34;;;;;;;12.75;1.40;;;;;;;7.01;100.00;98639.09;6104232;23;20014;-77
2020/12/12 03:35:00;;;;;;;12.25;1.80;;;;;;;7.00;100.00;98640.25;6129054;23;20009;-77
2020/12/12 03:37:26;;;;;;;8.80;1.83;;;;;;;7.00;100.00;98634.72;6105212;23;20391;-77
2020/12/12 03:39:51;;;;;;;13.70;1.42;;;;;;;6.99;100.00;98648.81;6104729;23;20002;-77
2020/12/12 03:42:17;;;;;;;12.02;1.77;;;;;;;6.96;100.00;98654.97;6104818;23;20025;-77
2020/12/12 03:44:43;;;;;;;9.18;1.20;;;;;;;6.93;100.00;98659.19;6104452;23;20001;-77
2020/12/12 03:47:11;;;;;;;12.93;1.73;;;;;;;6.92;100.00;98660.31;6104611;23;20009;-77
2020/12/12 03:49:39;;;;;;;14.60;1.98;;;;;;;6.90;100.00;98655.09;6081641;23;20006;-77
2020/12/12 03:52:12;;;;;;;11.82;3.08;;;;;;;6.89;100.00;98659.00;6105347;23;20013;-77
2020/12/12 03:54:37;;;;;;;17.73;5.07;;;;;;;6.87;100.00;98664.03;6103974;23;20017;-77
2020/12/12 03:57:09;;;;;;;18.42;5.63;;;;;;;6.86;100.00;98673.44;6105064;23;20093;-78
2020/12/12 03:59:34;;;;;;;20.27;7.40;;;;;;;6.84;100.00;98664.66;6081193;23;20005;-77
2020/12/12 04:02:00;;;;;;;17.80;7.72;;;;;;;6.81;100.00;98676.31;6128756;23;20486;-78
2020/12/12 04:04:25;;;;;;;20.60;6.72;;;;;;;6.80;100.00;98682.13;6104449;23;20006;-78
2020/12/12 04:06:51;;;;;;;22.33;6.55;;;;;;;6.79;100.00;98686.84;6104748;23;20006;-76
2020/12/12 04:09:17;;;;;;;19.10;7.05;;;;;;;6.75;100.00;98688.63;6080493;23;20021;-77
2020/12/12 04:11:42;;;;;;;20.55;6.75;;;;;;;6.72;100.00;98692.81;6130212;23;20013;-76
2020/12/12 04:14:08;;;;;;;25.90;8.07;;;;;;;6.71;100.00;98699.47;6128877;23;20006;-76
2020/12/12 04:16:33;;;;;;;22.23;6.78;;;;;;;6.71;100.00;98693.94;6128312;23;20018;-77
2020/12/12 04:18:59;;;;;;;16.27;5.85;;;;;;;6.68;100.00;98697.31;6104974;23;20009;-77
2020/12/12 04:21:25;;;;;;;20.67;5.88;;;;;;;6.66;100.00;98699.59;6130224;23;20010;-77
2020/12/12 04:23:51;;;;;;;19.05;6.60;;;;;;;6.65;100.00;98705.41;6128794;23;20002;-77
2020/12/12 04:26:16;;;;;;;19.52;9.82;;;;;;;6.64;100.00;98704.59;6152970;23;20022;-77
2020/12/12 04:28:42;;;;;;;18.63;7.47;;;;;;;6.62;100.00;98715.13;6104912;23;20327;-77
2020/12/12 04:31:07;;;;;;;17.27;6.47;;;;;;;6.60;100.00;98717.41;6103519;23;20006;-77
2020/12/12 04:33:34;;;;;;;22.83;5.82;;;;;;;6.58;100.00;98727.09;6080174;23;20068;-76
2020/12/12 04:35:59;;;;;;;14.40;4.78;;;;;;;6.55;100.00;98731.28;6130454;23;20014;-77
2020/12/12 04:38:26;;;;;;;16.90;4.93;;;;;;;6.54;100.00;98726.88;6104949;23;20093;-77
2020/12/12 04:40:53;;;;;;;16.92;5.82;;;;;;;6.52;100.00;98742.94;6129783;23;20006;-78
2020/12/12 04:43:18;;;;;;;16.42;4.78;;;;;;;6.51;100.00;98748.75;6128703;23;20432;-77
2020/12/12 04:45:44;;;;;;;19.13;4.85;;;;;;;6.49;100.00;98751.81;6128547;23;20014;-77
2020/12/12 04:48:09;;;;;;;19.73;5.10;;;;;;;6.46;100.00;98757.97;6105091;23;20006;-77
2020/12/12 04:50:35;;;;;;;19.85;4.45;;;;;;;6.45;100.00;98751.63;6130098;23;20037;-78
2020/12/12 04:53:30;;;;;;;19.80;4.38;;;;;;;6.46;100.00;98767.06;6128724;23;20006;-77
2020/12/12 04:55:56;;;;;;;18.90;4.18;;;;;;;6.45;100.00;98779.22;6115749;23;20017;-76
2020/12/12 04:58:24;;;;;;;10.55;3.95;;;;;;;6.46;100.00;98780.84;6104535;23;20009;-77
2020/12/12 05:00:52;;;;;;;16.15;4.53;;;;;;;6.46;100.00;98786.38;6105262;23;20341;-77
2020/12/12 05:03:19;;;;;;;14.25;3.60;;;;;;;6.46;100.00;98793.81;6104324;23;20012;-77
2020/12/12 05:05:44;;;;;;;13.38;4.45;;;;;;;6.48;100.00;98794.31;6104570;23;20005;-77
2020/12/12 05:08:10;;;;;;;11.43;3.70;;;;;;;6.48;100.00;98795.13;6104348;23;20502;-77
2020/12/12 05:10:43;;;;;;;15.55;3.72;;;;;;;6.49;100.00;98798.69;6153097;23;20013;-77
2020/12/12 05:13:25;;;;;;;16.58;3.65;;;;;;;6.49;100.00;98810.56;6104840;23;20006;-76
2020/12/12 05:15:52;;;;;;;13.45;3.40;;;;;;;6.49;100.00;98816.09;6128188;23;20005;-77
2020/12/12 05:18:18;;;;;;;16.15;3.70;;;;;;;6.50;100.00;98811.38;6104296;23;20049;-76
2020/12/12 05:20:44;;;;;;;14.00;3.70;;;;;;;6.52;100.00;98819.34;6128948;23;20048;-76
2020/12/12 05:23:16;;;;;;;14.68;3.83;;;;;;;6.52;100.00;98835.88;6129514;23;20013;-76
2020/12/12 05:25:42;;;;;;;13.75;3.50;;;;;;;6.51;100.00;98835.06;6107031;23;20006;-76
2020/12/12 05:28:08;;;;;;;12.30;3.55;;;;;;;6.51;100.00;98845.28;6130064;23;20570;-76
2020/12/12 05:30:35;;;;;;;19.58;3.47;;;;;;;6.54;100.00;98852.94;6129577;23;20068;-77
2020/12/12 05:33:01;;;;;;;13.00;3.60;;;;;;;6.53;100.00;98851.31;6130552;23;20006;-76
2020/12/12 05:35:26;;;;;;;17.77;2.88;;;;;;;6.51;100.00;98853.56;6081634;23;20336;-76
2020/12/12 05:37:53;;;;;;;13.60;3.00;;;;;;;6.50;100.00;98847.25;6106145;23;20017;-76
2020/12/12 05:40:18;;;;;;;16.58;3.33;;;;;;;6.51;100.00;98864.59;6105986;23;20016;-76
2020/12/12 05:42:44;;;;;;;10.93;3.05;;;;;;;6.49;100.00;98860.22;6106111;23;20014;-76
2020/12/12 05:45:10;;;;;;;12.55;2.88;;;;;;;6.51;100.00;98865.41;6081784;23;20009;-76
2020/12/12 05:47:35;;;;;;;16.58;3.03;;;;;;;6.51;100.00;98864.59;6105175;23;20100;-76
2020/12/12 05:50:01;;;;;;;14.90;2.92;;;;;;;6.51;100.00;98872.88;6081858;23;20014;-76
2020/12/12 05:52:27;;;;;;;12.55;2.60;;;;;;;6.51;100.00;98873.69;6105923;23;20017;-76
2020/12/12 05:54:53;;;;;;;12.88;2.92;;;;;;;6.53;100.00;98873.38;6129979;23;20014;-76
2020/12/12 05:57:18;;;;;;;14.45;2.38;;;;;;;6.49;100.00;98881.44;6081439;23;20013;-76
2020/12/12 05:59:44;;;;;;;12.52;3.20;;;;;;;6.48;100.00;98888.09;6106105;23;20017;-76
2020/12/12 06:02:09;;;;;;;15.07;2.70;;;;;;;6.48;100.00;98888.91;6105878;23;20010;-76
2020/12/12 06:04:35;;;;;;;13.18;2.80;;;;;;;6.48;100.00;98891.66;6105504;23;20009;-76
2020/12/12 06:07:04;;;;;;;14.63;2.47;;;;;;;6.48;100.00;98893.59;6130495;23;20005;-76
2020/12/12 06:09:36;;;;;;;10.57;2.40;;;;;;;6.46;100.00;98895.84;6131191;23;20009;-76
2020/12/12 06:12:03;;;;;;;11.50;2.60;;;;;;;6.45;100.00;98906.06;6130922;23;20033;-76
2020/12/12 06:14:31;;;;;;;9.45;2.40;;;;;;;6.43;100.00;98921.28;6129725;23;20097;-76
2020/12/12 06:16:57;;;;;;;13.07;3.25;;;;;;;6.40;100.00;98919.94;6129570;23;20070;-77
2020/12/12 06:19:22;;;;;;;12.27;2.95;;;;;;;6.35;100.00;98922.81;6105923;23;20009;-77
2020/12/12 06:21:48;;;;;;;13.82;2.70;;;;;;;6.32;100.00;98926.16;6105908;23;20006;-76
2020/12/12 06:24:15;;;;;;;13.32;2.40;;;;;;;6.30;100.00;98920.16;6129651;23;20005;-76
2020/12/12 06:26:54;;;;;;;15.38;2.65;;;;;;;6.27;100.00;98934.56;6154389;23;20022;-76
2020/12/12 06:29:20;;;;;;;15.80;2.70;;;;;;;6.22;100.00;98935.47;6129664;23;20017;-77
2020/12/12 06:31:46;;;;;;;9.52;2.97;;;;;;;6.19;100.00;98941.59;6129164;23;20038;-76
2020/12/12 06:34:11;;;;;;;11.77;2.35;;;;;;;6.18;100.00;98944.63;6105023;23;20006;-76
2020/12/12 06:36:43;;;;;;;7.53;2.17;;;;;;;6.14;100.00;98955.44;6129909;23;20014;-76
2020/12/12 06:39:22;;;;;;;13.73;2.58;;;;;;;6.10;100.00;98954.44;6081903;23;20018;-77
2020/12/12 06:41:51;;;;;;;10.10;2.60;;;;;;;6.09;100.00;98955.53;6106544;23;20028;-76
2020/12/12 06:44:36;;;;;;;11.30;2.25;;;;;;;6.04;100.00;98969.41;6106161;23;20017;-76
2020/12/12 06:47:03;;;;;;;10.75;2.33;;;;;;;6.01;100.00;98970.81;6129350;23;20347;-77
2020/12/12 06:49:28;;;;;;;13.00;2.53;;;;;;;6.01;100.00;98984.59;6105374;23;20002;-76
2020/12/12 06:51:54;;;;;;;10.05;2.33;;;;;;;5.99;100.00;98991.53;6081194;23;20010;-77
2020/12/12 06:54:20;;;;;;;11.88;2.30;;;;;;;5.99;100.00;98994.28;6131050;23;20085;-76
2020/12/12 06:56:46;;;;;;;13.65;2.40;;;;;;;5.98;100.00;98998.97;6129599;23;20089;-76
2020/12/12 06:59:28;;;;;;;13.75;2.10;;;;;;;5.97;100.00;99005.63;6104987;23;20006;-77
2020/12/12 07:02:00;;;;;;;7.60;1.90;;;;;;;5.97;100.00;99004.81;6129536;23;20065;-76
2020/12/12 07:04:30;;;;;;;11.30;2.42;;;;;;;5.95;100.00;99021.63;6104922;23;20030;-77
2020/12/12 07:07:10;;;;;;;10.45;2.20;;;;;;;5.94;100.00;99017.25;6129842;23;20017;-77
2020/12/12 07:09:39;;;;;;;16.08;2.92;;;;;;;5.92;100.00;99016.69;6104487;23;20014;-77
2020/12/12 07:12:05;;;;;;;12.13;2.95;;;;;;;5.90;100.00;99023.63;6129464;23;20018;-76
2020/12/12 07:14:30;;;;;;;13.23;2.72;;;;;;;5.88;100.00;99020.34;6129363;23;20056;-76
2020/12/12 07:16:57;;;;;;;8.93;2.22;;;;;;;5.86;100.00;99022.59;6105030;23;20379;-77
2020/12/12 07:19:37;;;;;;;14.45;2.38;;;;;;;5.82;100.00;99031.47;6104996;23;20037;-77
2020/12/12 07:22:04;;;;;;;12.55;2.20;;;;;;;5.81;100.00;99040.00;6129319;23;20013;-77
2020/12/12 07:24:30;;;;;;;15.30;2.90;;;;;;;5.78;100.00;99035.91;6104598;23;20006;-76
2020/12/12 07:26:55;;;;;;;14.82;2.47;;;;;;;5.75;100.00;99050.28;6123600;23;20323;-77
2020/12/12 07:29:21;;;;;;;13.77;2.72;;;;;;;5.72;100.00;99052.81;6163829;23;20059;-77
2020/12/12 07:31:47;;;;;;;12.80;2.15;;;;;;;5.69;100.00;99050.66;6113742;23;20012;-77
2020/12/12 07:34:19;;;;;;;12.90;2.00;;;;;;;5.65;100.00;99058.69;6090376;23;20394;-77
2020/12/12 07:36:45;;;;;;;8.23;1.95;;;;;;;5.63;100.00;99071.09;6163693;23;20059;-77
2020/12/12 07:39:11;;;;;;;11.88;2.20;;;;;;;5.60;100.00;99076.13;6163611;23;20056;-77
2020/12/12 07:41:45;;;;;;;12.98;1.80;;;;;;;5.58;100.00;99086.59;6138858;23;20036;-77
2020/12/12 07:44:11;;;;;;;13.25;2.45;;;;;;;5.55;100.00;99084.44;6139629;23;19997;-77
2020/12/12 07:46:40;;;;;;;11.23;2.28;;;;;;;5.53;100.00;99081.16;6138266;23;20310;-76
2020/12/12 07:49:08;;;;;;;14.23;2.17;;;;;;;5.50;100.00;99087.25;6163960;23;20001;-77
2020/12/12 07:51:34;;;;;;;13.23;1.80;;;;;;;5.48;100.00;99097.75;6189558;23;20677;-76
2020/12/12 07:54:10;;;;;;;14.50;2.17;;;;;;;5.46;100.00;99108.25;6163454;23;20009;-76
2020/12/12 07:56:36;;;;;;;13.02;1.92;;;;;;;5.42;100.00;99109.94;6189516;23;20005;-76
2020/12/12 07:59:06;;;;;;;9.48;2.33;;;;;;;5.41;100.00;99119.31;6163925;23;20080;-76
2020/12/12 08:01:32;;;;;;;11.57;2.55;;;;;;;5.40;100.00;99130.63;6164326;23;20013;-76
2020/12/12 08:03:57;;;;;;;10.07;1.90;;;;;;;5.39;100.00;99129.81;6163196;23;20004;-76
2020/12/12 08:06:27;;;;;;;10.32;1.77;;;;;;;5.36;100.00;99138.66;6163286;23;20009;-76
2020/12/12 08:08:53;;;;;;;13.50;2.55;;;;;;;5.34;100.00;99144.44;6164154;23;20008;-77
2020/12/12 08:11:19;;;;;;;15.85;2.42;;;;;;;5.34;100.00;99146.38;6162874;23;20063;-76
2020/12/12 08:13:45;;;;;;;12.52;2.05;;;;;;;5.32;100.00;99154.09;6163304;23;20005;-76
2020/12/12 08:16:19;;;;;;;11.75;1.88;;;;;;;5.31;100.00;99171.75;6189231;23;20449;-76
2020/12/12 08:18:44;;;;;;;13.07;1.83;;;;;;;5.30;100.00;99172.88;6163591;23;20422;-77
2020/12/12 08:21:14;;;;;;;11.35;1.90;;;;;;;5.29;100.00;99166.53;6190141;23;20016;-77
2020/12/12 08:23:39;;;;;;;12.32;2.30;;;;;;;5.30;100.00;99168.16;6163230;23;20072;-77
2020/12/12 08:26:05;;;;;;;11.32;2.53;;;;;;;5.31;100.00;99166.22;6137225;23;20009;-77
2020/12/12 08:28:32;;;;;;;14.18;2.47;;;;;;;5.32;100.00;99173.38;6189962;23;20017;-73
2020/12/12 08:31:16;;;;;;;16.42;2.55;;;;;;;5.36;100.00;99171.69;6162797;23;20005;-77
2020/12/12 08:33:46;;;;;;;8.50;1.95;;;;;;;5.38;100.00;99183.25;6113478;23;20009;-77
2020/12/12 08:36:20;;;;;;;10.35;1.83;;;;;;;5.41;100.00;99190.91;6138987;23;20008;-77
2020/12/12 08:38:53;;;;;;;12.85;2.70;;;;;;;5.46;100.00;99193.63;6138491;23;20012;-77
2020/12/12 08:41:28;;;;;;;14.85;2.38;;;;;;;5.51;100.00;99196.28;6163487;23;20005;-78
2020/12/12 08:44:01;;;;;;;17.50;2.58;;;;;;;5.55;100.00;99191.84;6115992;23;20001;-77
2020/12/12 08:46:32;;;;;;;13.93;1.92;;;;;;;5.60;100.00;99197.31;6140525;23;20005;-78
2020/12/12 08:49:17;;;;;;;17.05;2.72;;;;;;;5.65;100.00;99201.09;6115070;23;20013;-77
2020/12/12 08:52:02;;;;;;;15.20;2.40;;;;;;;5.70;100.00;99206.56;6117097;23;20101;-77
2020/12/12 08:54:45;;;;;;;17.17;2.75;;;;;;;5.76;100.00;99213.63;6117200;23;20005;-78
2020/12/12 08:57:30;;;;;;;14.05;2.38;;;;;;;5.80;100.00;99222.97;6094224;23;20012;-78
2020/12/12 09:00:08;;;;;;;11.40;2.55;;;;;;;5.89;100.00;99225.88;6126554;23;20008;-77
2020/12/12 09:02:36;;;;;;;10.00;2.30;;;;;;;5.95;100.00;99227.50;6141359;23;20005;-76
2020/12/12 09:05:08;;;;;;;9.52;2.10;;;;;;;6.01;100.00;99242.84;6115914;23;20012;-76
2020/12/12 09:11:12;;;;;;;15.20;2.53;;;;;;;6.18;100.00;99254.19;6027084;23;20062;-77
2020/12/12 09:14:17;;;;;;;16.77;2.33;;;;;;;6.26;100.00;99256.28;6041676;23;20521;-77
2020/12/12 09:16:50;;;;;;;8.18;1.80;;;;;;;6.36;100.00;99271.09;6017830;23;20042;-77
2020/12/12 09:19:18;;;;;;;18.60;2.80;;;;;;;6.42;100.00;99278.97;6041899;23;20549;-77
2020/12/12 09:22:15;;;;;;;11.15;2.65;;;;;;;6.50;100.00;99285.78;6042125;23;20041;-77
2020/12/12 09:24:46;;;;;;;13.43;2.17;;;;;;;6.59;100.00;99281.22;5994366;23;20011;-77
2020/12/12 09:27:21;;;;;;;10.55;2.53;;;;;;;6.65;100.00;99296.59;6019987;23;20027;-78
2020/12/12 09:29:47;;;;;;;12.85;2.00;;;;;;;6.72;100.00;99301.75;5995693;23;20473;-77
2020/12/12 09:32:16;;;;;;;7.60;2.00;;;;;;;6.79;100.00;99301.38;5994606;23;20011;-77
2020/12/12 09:34:44;;;;;;;11.05;1.77;;;;;;;6.87;100.00;99312.56;6018660;23;20022;-77
2020/12/12 09:37:10;;;;;;;11.02;2.13;;;;;;;6.94;100.00;99321.28;6018413;23;20015;-77
2020/12/12 09:39:36;;;;;;;7.47;1.92;;;;;;;7.02;100.00;99332.75;6017965;23;20011;-77
2020/12/12 09:42:01;;;;;;;13.55;2.13;;;;;;;7.10;99.80;99329.31;5995344;23;20036;-77
2020/12/12 09:44:27;;;;;;;12.15;2.00;;;;;;;7.19;99.50;99340.50;6042593;23;20155;-77
2020/12/12 09:46:53;;;;;;;10.18;2.08;;;;;;;7.25;99.65;99342.91;6057115;23;20010;-77
2020/12/12 09:49:19;;;;;;;14.07;2.15;;;;;;;7.32;99.35;99354.38;6135298;23;20014;-77
2020/12/12 09:51:48;;;;;;;12.73;1.98;;;;;;;7.42;99.33;99358.94;6135737;23;20037;-77
2020/12/12 09:54:14;;;;;;;11.57;1.70;;;;;;;7.50;99.22;99365.72;6134688;23;20017;-77
2020/12/12 09:56:40;;;;;;;9.65;1.58;;;;;;;7.59;99.50;99377.72;6135346;23;20013;-77
2020/12/12 09:59:05;;;;;;;11.15;2.35;;;;;;;7.66;99.02;99389.22;6110621;23;20052;-77
2020/12/12 10:01:34;;;;;;;10.25;2.15;;;;;;;7.74;98.75;99387.66;6159461;23;20010;-77
2020/12/12 10:04:00;;;;;;;11.90;2.22;;;;;;;7.81;98.81;99386.16;6112474;23;20028;-77
2020/12/12 10:06:26;;;;;;;7.90;1.55;;;;;;;7.90;98.27;99405.63;6134711;23;20009;-77
2020/12/12 10:08:59;;;;;;;10.55;2.10;;;;;;;7.96;98.14;99396.13;6159071;23;20080;-77
2020/12/12 10:11:27;;;;;;;10.85;2.00;;;;;;;8.05;97.97;99410.06;6112165;23;20419;-77
2020/12/12 10:13:52;;;;;;;11.68;1.88;;;;;;;8.11;97.85;99419.94;6135235;23;20024;-77
2020/12/12 10:16:24;;;;;;;9.15;1.70;;;;;;;8.19;97.93;99413.72;6158777;23;20383;-77
2020/12/12 10:18:49;;;;;;;8.48;1.88;;;;;;;8.26;97.38;99416.88;6135661;23;20110;-77
2020/12/12 10:21:18;;;;;;;10.32;1.85;;;;;;;8.36;97.35;99420.56;6111393;23;20013;-77
2020/12/12 10:23:43;;;;;;;9.13;2.10;;;;;;;8.42;97.09;99430.47;6135104;23;20057;-77
2020/12/12 10:26:12;;;;;;;7.97;1.92;;;;;;;8.48;96.91;99426.47;6113493;23;20036;-77
2020/12/12 10:28:40;;;;;;;12.35;1.90;;;;;;;8.56;96.73;99436.00;6164370;23;20063;-77
2020/12/12 10:31:46;;;;;;;12.45;1.75;;;;;;;8.63;96.84;99442.75;6115557;23;20546;-78
2020/12/12 10:38:25;;;;;;;15.35;2.33;;;;;;;8.79;96.66;99461.84;6176685;23;20009;-78
2020/12/12 10:44:50;;;;;;;15.05;1.88;;;;;;;8.92;96.73;99481.22;6189947;23;20079;-78
2020/12/12 10:47:18;;;;;;;14.52;2.17;;;;;;;8.91;96.84;99487.91;6115673;23;20346;-76
2020/12/12 10:49:49;;;;;;;16.83;3.95;;;;;;;8.94;96.33;99484.50;6139994;23;20009;-77
2020/12/12 10:52:21;;;;;;;17.25;3.47;;;;;;;8.98;96.29;99493.00;6090070;23;20021;-76
2020/12/12 10:55:25;;;;;;;18.10;3.45;;;;;;;8.98;95.91;99495.78;6115578;23;20009;-78
2020/12/12 11:01:45;;;;;;;16.70;3.13;;;;;;;8.90;96.00;99490.97;6141048;23;20012;-78
2020/12/12 11:04:50;;;;;;;14.45;3.00;;;;;;;8.91;95.95;99503.66;6116058;23;20048;-78
2020/12/12 11:07:25;;;;;;;10.93;2.40;;;;;;;8.83;95.98;99504.38;6147848;23;20063;-78
2020/12/12 11:10:32;;;;;;;;;;;;;;;;;;;;;
2020/12/12 11:16:42;;;;;;;15.40;2.10;;;;;;;8.80;95.24;99508.59;6163394;23;20341;-78
2020/12/12 11:19:26;;;;;;;9.43;2.28;;;;;;;8.82;94.97;99513.81;6092732;23;20008;-78
2020/12/12 11:21:53;;;;;;;11.68;2.65;;;;;;;8.83;94.91;99512.69;6135772;23;20453;-72
2020/12/12 11:24:21;;;;;;;14.25;3.10;;;;;;;8.81;94.89;99513.00;6189278;23;20083;-77
2020/12/12 11:26:55;;;;;;;12.07;2.42;;;;;;;8.84;94.91;99506.03;6164297;23;20020;-77
2020/12/12 11:29:24;;;;;;;11.73;2.42;;;;;;;8.86;94.82;99506.53;6091314;23;20043;-77
2020/12/12 11:41:02;;;;;;;14.70;2.80;;;;;;;8.98;94.96;99517.13;6146044;23;20083;-77
2020/12/12 11:44:19;;;;;;;15.40;3.17;;;;;;;9.02;95.02;99518.13;6151473;23;20040;-77
2020/12/12 11:46:48;;;;;;;18.23;3.50;;;;;;;9.03;94.57;99520.59;6121488;23;20395;-77
2020/12/12 11:49:18;;;;;;;13.75;2.78;;;;;;;9.05;94.52;99515.56;6089292;23;20079;-78
2020/12/12 11:51:47;;;;;;;15.20;3.30;;;;;;;9.06;94.21;99522.75;6092888;23;20009;-76
2020/12/12 11:54:12;;;;;;;18.73;2.70;;;;;;;9.05;94.29;99528.59;6114757;23;20040;-76
2020/12/12 11:56:38;;;;;;;13.70;2.40;;;;;;;9.08;93.98;99533.50;6163055;23;20032;-77
2020/12/12 11:59:15;;;;;;;13.98;2.30;;;;;;;9.11;94.11;99539.28;6189700;23;20005;-78
2020/12/12 12:01:50;;;;;;;10.13;2.47;;;;;;;9.15;93.97;99537.53;6163223;23;20460;-78
2020/12/12 12:04:16;;;;;;;15.20;2.28;;;;;;;9.14;93.72;99524.81;6139127;23;20028;-77
2020/12/12 12:06:41;;;;;;;12.75;2.05;;;;;;;9.17;93.57;99529.72;6163621;23;20009;-74